createdAt,value
2022-12-31T00:01:33.439Z,4.50
2022-12-31T00:04:00.560Z,4.40
2022-12-31T00:06:33.019Z,4.40
2022-12-31T00:09:02.688Z,4.40
2022-12-31T00:11:30.671Z,4.30
2022-12-31T00:13:58.414Z,4.30
2022-12-31T00:16:28.443Z,4.30
2022-12-31T00:18:59.427Z,4.20
2022-12-31T00:21:28.599Z,4.30
2022-12-31T00:23:56.040Z,4.20
2022-12-31T00:26:25.620Z,4.20
2022-12-31T00:28:54.272Z,4.20
2022-12-31T00:31:24.513Z,4.20
2022-12-31T00:33:52.159Z,4.20
2022-12-31T00:36:23.599Z,4.20
2022-12-31T00:38:52.351Z,4.30
2022-12-31T00:41:20.621Z,4.20
2022-12-31T00:43:48.273Z,4.20
2022-12-31T00:46:16.155Z,4.30
2022-12-31T00:48:44.260Z,4.30
2022-12-31T00:51:14.547Z,4.30
2022-12-31T00:53:41.892Z,4.30
2022-12-31T00:56:21.165Z,4.30
2022-12-31T00:58:48.973Z,4.30
2022-12-31T01:01:21.744Z,4.30
2022-12-31T01:03:52.309Z,4.30
2022-12-31T01:06:20.301Z,4.40
2022-12-31T01:08:49.455Z,4.40
2022-12-31T01:11:22.605Z,4.40
2022-12-31T01:13:53.781Z,4.50
2022-12-31T01:16:23.769Z,4.50
2022-12-31T01:18:51.459Z,4.70
2022-12-31T01:21:19.384Z,4.70
2022-12-31T01:23:46.557Z,5.00
2022-12-31T01:26:15.627Z,5.00
2022-12-31T01:28:42.740Z,5.00
2022-12-31T01:31:12.876Z,5.00
2022-12-31T01:33:41.464Z,5.00
2022-12-31T01:36:12.537Z,4.90
2022-12-31T01:38:39.735Z,4.90
2022-12-31T01:41:07.352Z,4.90
2022-12-31T01:43:54.863Z,5.00
2022-12-31T01:46:41.354Z,5.10
2022-12-31T01:49:18.891Z,5.20
2022-12-31T01:51:50.675Z,5.30
2022-12-31T01:54:20.558Z,5.30
2022-12-31T01:56:48.099Z,5.40
2022-12-31T01:59:18.492Z,5.50
2022-12-31T02:01:48.401Z,5.50
2022-12-31T02:04:16.584Z,5.60
2022-12-31T02:06:50.320Z,5.50
2022-12-31T02:09:17.319Z,5.60
2022-12-31T02:11:44.337Z,5.60
2022-12-31T02:14:28.970Z,5.60
2022-12-31T02:17:18.058Z,5.60
2022-12-31T02:20:15.825Z,5.60
2022-12-31T02:22:45.439Z,5.60
2022-12-31T02:25:18.063Z,5.60
2022-12-31T02:27:53.841Z,5.60
2022-12-31T02:30:22.915Z,5.60
2022-12-31T02:32:58.660Z,5.60
2022-12-31T02:35:45.053Z,5.70
2022-12-31T02:38:21.025Z,5.70
2022-12-31T02:40:48.429Z,5.70
2022-12-31T02:43:15.519Z,5.70
2022-12-31T02:45:46.599Z,5.70
2022-12-31T02:48:24.890Z,5.70
2022-12-31T02:51:01.827Z,5.80
2022-12-31T02:53:34.549Z,5.80
2022-12-31T02:56:09.304Z,5.70
2022-12-31T02:59:04.780Z,5.70
2022-12-31T03:01:55.266Z,5.70
2022-12-31T03:04:33.446Z,5.60
2022-12-31T03:07:06.062Z,5.70
2022-12-31T03:09:33.998Z,5.70
2022-12-31T03:12:20.719Z,5.70
2022-12-31T03:14:47.914Z,5.70
2022-12-31T03:17:14.960Z,5.60
2022-12-31T03:20:00.731Z,5.60
2022-12-31T03:22:27.656Z,5.70
2022-12-31T03:25:22.713Z,5.70
2022-12-31T03:27:49.868Z,5.70
2022-12-31T03:30:18.728Z,5.70
2022-12-31T03:32:46.794Z,5.70
2022-12-31T03:35:15.845Z,5.80
2022-12-31T03:37:43.498Z,5.80
2022-12-31T03:40:12.395Z,6.00
2022-12-31T03:42:39.748Z,6.10
2022-12-31T03:45:07.399Z,6.20
2022-12-31T03:47:34.440Z,6.20
2022-12-31T03:50:01.362Z,6.20
2022-12-31T03:52:28.360Z,6.20
2022-12-31T03:54:55.235Z,6.20
2022-12-31T03:57:23.148Z,6.20
2022-12-31T03:59:50.161Z,6.20
2022-12-31T04:02:17.241Z,6.20
2022-12-31T04:04:44.243Z,6.10
2022-12-31T04:07:11.200Z,6.10
2022-12-31T04:09:38.167Z,6.10
2022-12-31T04:12:05.491Z,6.00
2022-12-31T04:14:32.418Z,6.00
2022-12-31T04:16:59.329Z,6.00
2022-12-31T04:19:26.238Z,5.90
2022-12-31T04:21:53.130Z,6.00
2022-12-31T04:24:20.051Z,5.90
2022-12-31T04:26:46.936Z,5.90
2022-12-31T04:29:13.887Z,5.90
2022-12-31T04:31:40.974Z,5.80
2022-12-31T04:34:07.982Z,5.70
2022-12-31T04:36:35.026Z,5.60
2022-12-31T04:39:02.062Z,5.40
2022-12-31T04:41:28.948Z,5.20
2022-12-31T04:43:58.096Z,5.20
2022-12-31T04:46:27.609Z,5.10
2022-12-31T04:48:54.877Z,5.00
2022-12-31T04:51:22.314Z,4.90
2022-12-31T04:53:49.569Z,4.90
2022-12-31T04:56:17.256Z,4.90
2022-12-31T04:58:44.487Z,4.90
2022-12-31T05:01:12.499Z,4.90
2022-12-31T05:03:39.550Z,4.80
2022-12-31T05:06:13.276Z,4.80
2022-12-31T05:08:40.338Z,4.70
2022-12-31T05:11:07.535Z,4.70
2022-12-31T05:13:34.813Z,4.70
2022-12-31T05:16:03.407Z,4.70
2022-12-31T05:18:31.092Z,4.70
2022-12-31T05:20:58.136Z,4.70
2022-12-31T05:23:25.626Z,4.70
2022-12-31T05:25:52.935Z,4.70
2022-12-31T05:28:20.337Z,4.70
2022-12-31T05:30:51.575Z,4.80
2022-12-31T05:33:19.299Z,4.70
2022-12-31T05:35:46.561Z,4.80
2022-12-31T05:38:13.480Z,4.80
2022-12-31T05:40:40.572Z,4.80
2022-12-31T05:43:07.600Z,4.90
2022-12-31T05:45:34.768Z,4.90
2022-12-31T05:48:01.884Z,4.90
2022-12-31T05:50:28.972Z,4.90
2022-12-31T05:52:56.298Z,4.90
2022-12-31T05:55:23.633Z,5.00
2022-12-31T05:57:50.684Z,5.00
2022-12-31T06:00:17.815Z,5.00
2022-12-31T06:02:44.790Z,5.00
2022-12-31T06:05:12.351Z,5.00
2022-12-31T06:07:39.249Z,5.00
2022-12-31T06:10:06.839Z,5.10
2022-12-31T06:12:33.756Z,5.10
2022-12-31T06:15:00.688Z,5.10
2022-12-31T06:17:27.680Z,5.10
2022-12-31T06:19:54.626Z,5.20
2022-12-31T06:22:21.530Z,5.20
2022-12-31T06:24:48.445Z,5.20
2022-12-31T06:27:15.404Z,5.20
2022-12-31T06:29:42.384Z,5.30
2022-12-31T06:32:09.267Z,5.30
2022-12-31T06:34:36.145Z,5.30
2022-12-31T06:37:03.044Z,5.30
2022-12-31T06:39:29.968Z,5.30
2022-12-31T06:41:56.914Z,5.30
2022-12-31T06:44:23.899Z,5.30
2022-12-31T06:46:51.251Z,5.40
2022-12-31T06:49:18.354Z,5.40
2022-12-31T06:51:46.321Z,5.40
2022-12-31T06:54:13.719Z,5.40
2022-12-31T06:56:41.673Z,5.40
2022-12-31T06:59:29.357Z,5.40
2022-12-31T07:02:14.381Z,5.50
2022-12-31T07:04:47.023Z,5.50
2022-12-31T07:07:41.589Z,5.50
2022-12-31T07:10:29.777Z,5.50
2022-12-31T07:13:09.202Z,5.50
2022-12-31T07:15:58.746Z,5.60
2022-12-31T07:18:46.716Z,5.50
2022-12-31T07:21:16.597Z,5.50
2022-12-31T07:23:43.826Z,5.60
2022-12-31T07:26:43.174Z,5.60
2022-12-31T07:29:15.877Z,5.60
2022-12-31T07:32:07.960Z,5.60
2022-12-31T07:34:56.673Z,5.70
2022-12-31T07:37:38.038Z,5.70
2022-12-31T07:40:29.315Z,5.70
2022-12-31T07:42:59.374Z,5.90
2022-12-31T07:46:08.320Z,5.90
2022-12-31T07:48:35.574Z,6.00
2022-12-31T07:51:02.780Z,6.00
2022-12-31T07:53:30.090Z,6.00
2022-12-31T07:56:00.156Z,6.00
2022-12-31T07:58:59.647Z,6.00
2022-12-31T08:01:41.690Z,6.00
2022-12-31T08:04:34.966Z,6.00
2022-12-31T08:07:29.321Z,6.00
2022-12-31T08:09:59.835Z,6.00
2022-12-31T08:12:31.695Z,6.10
2022-12-31T08:14:58.992Z,6.10
2022-12-31T08:17:26.171Z,6.10
2022-12-31T08:19:53.616Z,6.10
2022-12-31T08:22:47.923Z,6.20
2022-12-31T08:25:23.750Z,6.20
2022-12-31T08:28:09.245Z,6.20
2022-12-31T08:30:59.289Z,6.20
2022-12-31T08:34:05.958Z,6.20
2022-12-31T08:37:10.424Z,6.20
2022-12-31T08:39:51.020Z,6.20
2022-12-31T08:42:36.125Z,6.10
2022-12-31T08:45:27.504Z,6.10
2022-12-31T08:48:00.561Z,6.20
2022-12-31T08:50:28.432Z,6.20
2022-12-31T08:52:55.686Z,6.30
2022-12-31T08:55:22.922Z,6.30
2022-12-31T08:57:58.318Z,6.40
2022-12-31T09:00:27.778Z,6.40
2022-12-31T09:03:22.238Z,6.40
2022-12-31T09:06:10.850Z,6.40
2022-12-31T09:08:53.834Z,6.40
2022-12-31T09:11:37.157Z,6.40
2022-12-31T09:14:27.080Z,6.40
2022-12-31T09:16:54.026Z,6.40
2022-12-31T09:19:20.981Z,6.40
2022-12-31T09:21:48.218Z,6.40
2022-12-31T09:24:16.066Z,6.50
2022-12-31T09:26:51.236Z,6.40
2022-12-31T09:29:52.191Z,6.50
2022-12-31T09:32:40.944Z,6.50
2022-12-31T09:35:42.204Z,6.50
2022-12-31T09:38:35.658Z,6.50
2022-12-31T09:41:13.932Z,6.40
2022-12-31T09:44:14.640Z,6.40
2022-12-31T09:47:15.767Z,6.40
2022-12-31T09:49:54.702Z,6.40
2022-12-31T09:52:39.373Z,6.40
2022-12-31T09:55:13.314Z,6.40
2022-12-31T09:58:07.392Z,6.40
2022-12-31T10:01:10.741Z,6.40
2022-12-31T10:03:49.465Z,6.40
2022-12-31T10:06:27.952Z,6.50
2022-12-31T10:09:12.701Z,6.50
2022-12-31T10:11:57.730Z,6.50
2022-12-31T10:15:06.596Z,6.50
2022-12-31T10:17:45.470Z,6.60
2022-12-31T10:20:15.520Z,6.60
2022-12-31T10:23:13.307Z,6.70
2022-12-31T10:25:55.496Z,6.70
2022-12-31T10:28:41.233Z,6.70
2022-12-31T10:31:23.552Z,6.70
2022-12-31T10:34:13.348Z,6.70
2022-12-31T10:36:58.042Z,6.80
2022-12-31T10:39:43.879Z,6.80
2022-12-31T10:42:48.011Z,6.70
2022-12-31T10:45:33.975Z,6.70
2022-12-31T10:48:22.094Z,6.70
2022-12-31T10:51:29.737Z,6.60
2022-12-31T10:54:16.040Z,6.60
2022-12-31T10:57:07.422Z,6.60
2022-12-31T11:00:02.011Z,6.60
2022-12-31T11:02:31.837Z,6.60
2022-12-31T11:05:04.690Z,6.50
2022-12-31T11:07:47.035Z,6.50
2022-12-31T11:10:44.639Z,6.50
2022-12-31T11:13:23.596Z,6.50
2022-12-31T11:16:11.741Z,6.50
2022-12-31T11:18:59.424Z,6.50
2022-12-31T11:22:09.518Z,6.50
2022-12-31T11:24:42.124Z,6.50
2022-12-31T11:27:49.272Z,6.40
2022-12-31T11:30:22.855Z,6.40
2022-12-31T11:33:27.451Z,6.50
2022-12-31T11:36:06.602Z,6.40
2022-12-31T11:38:45.848Z,6.40
2022-12-31T11:41:18.513Z,6.40
2022-12-31T11:43:51.256Z,6.40
2022-12-31T11:46:30.964Z,6.40
2022-12-31T11:49:31.669Z,6.40
2022-12-31T11:52:10.523Z,6.40
2022-12-31T11:54:42.536Z,6.40
2022-12-31T11:57:31.001Z,6.40
2022-12-31T12:00:13.613Z,6.40
2022-12-31T12:02:49.212Z,6.30
2022-12-31T12:05:20.350Z,6.30
2022-12-31T12:07:50.316Z,6.30
2022-12-31T12:10:22.099Z,6.30
2022-12-31T12:12:49.071Z,6.30
2022-12-31T12:15:35.648Z,6.30
2022-12-31T12:18:13.878Z,6.30
2022-12-31T12:20:44.434Z,6.30
2022-12-31T12:23:18.011Z,6.40
2022-12-31T12:25:46.264Z,6.30
2022-12-31T12:28:20.464Z,6.40
2022-12-31T12:31:04.397Z,6.30
2022-12-31T12:33:42.691Z,6.40
2022-12-31T12:36:16.994Z,6.30
2022-12-31T12:38:44.476Z,6.30
2022-12-31T12:41:19.416Z,6.30
2022-12-31T12:43:59.554Z,6.30
2022-12-31T12:46:47.779Z,6.30
2022-12-31T12:49:38.698Z,6.20
2022-12-31T12:52:44.327Z,6.20
2022-12-31T12:56:17.425Z,6.30
2022-12-31T12:59:00.255Z,6.30
2022-12-31T13:01:40.548Z,6.30
2022-12-31T13:04:34.682Z,6.40
2022-12-31T13:07:24.550Z,6.30
2022-12-31T13:10:06.311Z,6.30
2022-12-31T13:13:13.797Z,6.30
2022-12-31T13:15:38.882Z,6.30
2022-12-31T13:18:14.084Z,6.40
2022-12-31T13:21:16.707Z,6.40
2022-12-31T13:24:06.378Z,6.40
2022-12-31T13:26:44.815Z,6.40
2022-12-31T13:29:20.970Z,6.40
2022-12-31T13:31:50.630Z,6.30
2022-12-31T13:34:22.029Z,6.40
2022-12-31T13:36:51.963Z,6.30
2022-12-31T13:39:26.975Z,6.30
2022-12-31T13:42:03.652Z,6.40
2022-12-31T13:44:38.850Z,6.30
2022-12-31T13:47:17.617Z,6.30
2022-12-31T13:50:14.382Z,6.30
2022-12-31T13:52:45.334Z,6.30
2022-12-31T13:55:31.182Z,6.30
2022-12-31T13:58:19.667Z,6.30
2022-12-31T14:00:58.666Z,6.20
2022-12-31T14:03:37.129Z,6.20
2022-12-31T14:06:14.865Z,6.10
2022-12-31T14:08:41.937Z,6.10
2022-12-31T14:11:23.107Z,6.10
2022-12-31T14:14:06.734Z,6.10
2022-12-31T14:16:51.383Z,6.10
2022-12-31T14:19:41.021Z,6.10
2022-12-31T14:22:42.662Z,6.10
2022-12-31T14:25:36.544Z,6.10
2022-12-31T14:28:06.787Z,6.00
2022-12-31T14:30:41.142Z,6.00
2022-12-31T14:33:43.516Z,6.00
2022-12-31T14:36:43.384Z,6.00
2022-12-31T14:39:13.178Z,6.00
2022-12-31T14:42:01.059Z,6.00
2022-12-31T14:45:05.013Z,6.00
2022-12-31T14:47:53.335Z,6.00
2022-12-31T14:50:23.297Z,6.00
2022-12-31T14:52:58.953Z,5.90
2022-12-31T14:55:28.962Z,5.90
2022-12-31T15:00:55.639Z,5.90
2022-12-31T15:03:44.753Z,6.00
2022-12-31T15:06:35.579Z,5.90
2022-12-31T15:09:38.105Z,5.90
2022-12-31T15:12:16.586Z,6.00
2022-12-31T15:14:58.847Z,6.00
2022-12-31T15:17:33.772Z,6.00
2022-12-31T15:20:31.823Z,6.00
2022-12-31T15:22:59.122Z,6.00
2022-12-31T15:25:41.367Z,6.00
2022-12-31T15:28:25.361Z,6.00
2022-12-31T15:30:59.266Z,6.00
2022-12-31T15:33:47.255Z,6.00
2022-12-31T15:36:18.573Z,6.00
2022-12-31T15:38:46.652Z,6.00
2022-12-31T15:41:19.862Z,6.00
2022-12-31T15:43:52.885Z,6.00
2022-12-31T15:46:28.051Z,6.00
2022-12-31T15:49:11.786Z,6.00
2022-12-31T15:52:00.760Z,6.00
2022-12-31T15:54:42.128Z,6.00
2022-12-31T15:57:25.874Z,6.00
2022-12-31T15:59:59.371Z,6.00
2022-12-31T16:02:27.728Z,6.10
2022-12-31T16:04:55.777Z,6.10
2022-12-31T16:07:25.277Z,6.10
2022-12-31T16:09:58.173Z,6.10
2022-12-31T16:12:32.785Z,6.20
2022-12-31T16:15:02.659Z,6.10
2022-12-31T16:17:38.895Z,6.10
2022-12-31T16:20:30.719Z,6.10
2022-12-31T16:23:00.189Z,6.10
2022-12-31T16:25:31.673Z,6.10
2022-12-31T16:27:59.514Z,6.10
2022-12-31T16:30:32.463Z,6.10
2022-12-31T16:33:02.632Z,6.20
2022-12-31T16:35:32.805Z,6.10
2022-12-31T16:38:11.373Z,6.20
2022-12-31T16:40:39.599Z,6.20
2022-12-31T16:43:27.678Z,6.20
2022-12-31T16:45:59.043Z,6.20
2022-12-31T16:48:26.720Z,6.20
2022-12-31T16:50:55.930Z,6.20
2022-12-31T16:53:26.562Z,6.20
2022-12-31T16:56:04.829Z,6.20
2022-12-31T16:58:34.978Z,6.20
2022-12-31T17:01:12.495Z,6.20
2022-12-31T17:03:44.572Z,6.30
2022-12-31T17:06:16.938Z,6.20
2022-12-31T17:09:10.163Z,6.20
2022-12-31T17:12:07.899Z,6.30
2022-12-31T17:14:51.191Z,6.30
2022-12-31T17:17:27.573Z,6.30
2022-12-31T17:20:00.873Z,6.30
2022-12-31T17:22:36.673Z,6.40
2022-12-31T17:25:27.241Z,6.50
2022-12-31T17:28:03.091Z,6.50
2022-12-31T17:30:30.075Z,6.50
2022-12-31T17:33:01.166Z,6.60
2022-12-31T17:35:30.631Z,6.60
2022-12-31T17:38:22.248Z,6.60
2022-12-31T17:41:06.595Z,6.60
2022-12-31T17:43:38.212Z,6.60
2022-12-31T17:46:14.162Z,6.60
2022-12-31T17:48:42.903Z,6.70
2022-12-31T17:51:10.117Z,6.70
2022-12-31T17:53:37.332Z,6.70
2022-12-31T17:56:07.504Z,6.80
2022-12-31T17:58:48.715Z,6.80
2022-12-31T18:01:21.671Z,6.80
2022-12-31T18:03:49.470Z,6.90
2022-12-31T18:06:19.628Z,6.80
2022-12-31T18:08:47.043Z,6.80
2022-12-31T18:11:20.708Z,6.90
2022-12-31T18:13:48.005Z,6.90
2022-12-31T18:16:15.429Z,6.80
2022-12-31T18:18:43.792Z,6.90
2022-12-31T18:21:27.162Z,6.80
2022-12-31T18:26:25.324Z,6.80
2022-12-31T18:28:52.909Z,6.90
2022-12-31T18:31:25.793Z,6.90
2022-12-31T18:33:55.213Z,6.90
2022-12-31T18:36:23.843Z,6.90
2022-12-31T18:38:51.262Z,6.90
2022-12-31T18:41:21.479Z,6.80
2022-12-31T18:43:49.645Z,6.80
2022-12-31T18:46:19.464Z,6.80
2022-12-31T18:48:53.201Z,6.80
2022-12-31T18:51:31.432Z,6.80
2022-12-31T18:53:58.977Z,6.70
2022-12-31T18:56:25.987Z,6.70
2022-12-31T18:58:53.269Z,6.70
2022-12-31T19:01:29.485Z,6.70
2022-12-31T19:03:59.334Z,6.70
2022-12-31T19:06:27.341Z,6.70
2022-12-31T19:08:54.444Z,6.70
2022-12-31T19:11:22.386Z,6.70
2022-12-31T19:13:49.935Z,6.60
2022-12-31T19:16:18.089Z,6.70
2022-12-31T19:18:46.454Z,6.70
2022-12-31T19:21:19.775Z,6.70
2022-12-31T19:23:47.128Z,6.70
2022-12-31T19:26:19.401Z,6.80
2022-12-31T19:28:47.655Z,6.80
2022-12-31T19:31:15.704Z,6.80
2022-12-31T19:33:43.047Z,6.80
2022-12-31T19:36:16.591Z,6.80
2022-12-31T19:38:44.197Z,6.80
2022-12-31T19:41:20.364Z,6.80
2022-12-31T19:43:48.065Z,6.80
2022-12-31T19:46:16.562Z,6.70
2022-12-31T19:48:44.350Z,6.70
2022-12-31T19:51:17.147Z,6.60
2022-12-31T19:53:44.576Z,6.60
2022-12-31T19:56:18.452Z,6.60
2022-12-31T19:58:46.055Z,6.60
2022-12-31T20:01:20.306Z,6.60
2022-12-31T20:03:48.278Z,6.60
2022-12-31T20:06:15.646Z,6.70
2022-12-31T20:08:46.689Z,6.60
2022-12-31T20:11:19.084Z,6.60
2022-12-31T20:13:46.989Z,6.60
2022-12-31T20:16:17.317Z,6.60
2022-12-31T20:18:46.042Z,6.60
2022-12-31T20:21:20.469Z,6.60
2022-12-31T20:23:49.067Z,6.60
2022-12-31T20:26:16.827Z,6.60
2022-12-31T20:28:43.910Z,6.60
2022-12-31T20:31:13.734Z,6.60
2022-12-31T20:33:41.501Z,6.60
2022-12-31T20:36:11.060Z,6.60
2022-12-31T20:38:38.057Z,6.60
2022-12-31T20:41:17.040Z,6.60
2022-12-31T20:43:44.575Z,6.60
2022-12-31T20:46:16.169Z,6.60
2022-12-31T20:48:44.466Z,6.60
2022-12-31T20:51:12.528Z,6.60
2022-12-31T20:53:39.919Z,6.70
2022-12-31T20:56:08.822Z,6.60
2022-12-31T20:58:36.338Z,6.60
2022-12-31T21:01:06.809Z,6.60
2022-12-31T21:04:04.427Z,6.60
2022-12-31T21:06:23.425Z,6.70
2022-12-31T21:08:50.401Z,6.70
2022-12-31T21:11:36.069Z,6.80
2022-12-31T21:14:06.135Z,6.80
2022-12-31T21:16:33.260Z,6.80
2022-12-31T21:19:00.333Z,6.80
2022-12-31T21:21:27.402Z,6.70
2022-12-31T21:23:54.454Z,6.70
2022-12-31T21:26:21.363Z,6.80
2022-12-31T21:28:48.338Z,6.80
2022-12-31T21:31:15.728Z,6.80
2022-12-31T21:33:46.616Z,6.90
2022-12-31T21:36:14.671Z,7.00
2022-12-31T21:38:41.789Z,7.10
2022-12-31T21:41:09.472Z,7.10
2022-12-31T21:43:36.436Z,7.20
2022-12-31T21:46:05.506Z,7.20
2022-12-31T21:48:33.148Z,7.30
2022-12-31T21:51:09.280Z,7.30
2022-12-31T21:53:37.405Z,7.30
2022-12-31T21:56:12.646Z,7.30
2022-12-31T21:59:14.597Z,7.20
2022-12-31T22:02:00.850Z,7.30
2022-12-31T22:05:00.906Z,7.40
2022-12-31T22:07:15.182Z,7.40
2022-12-31T22:09:42.184Z,7.40
2022-12-31T22:12:09.141Z,7.30
2022-12-31T22:14:36.279Z,7.30
2022-12-31T22:17:03.371Z,7.20
2022-12-31T22:19:30.295Z,7.20
2022-12-31T22:21:57.281Z,7.20
2022-12-31T22:24:24.517Z,7.20
2022-12-31T22:26:52.249Z,7.20
2022-12-31T22:29:19.920Z,7.20
2022-12-31T22:31:47.267Z,7.20
2022-12-31T22:34:14.268Z,7.20
2022-12-31T22:36:41.194Z,7.20
2022-12-31T22:39:13.857Z,7.10
2022-12-31T22:42:00.918Z,7.10
2022-12-31T22:44:27.934Z,7.00
2022-12-31T22:46:56.316Z,6.90
2022-12-31T22:49:23.416Z,7.00
2022-12-31T22:51:57.359Z,6.90
2022-12-31T22:54:26.692Z,6.90
2022-12-31T22:56:53.712Z,6.90
2022-12-31T22:59:20.767Z,6.90
2022-12-31T23:01:48.238Z,6.90
2022-12-31T23:04:15.399Z,6.90
2022-12-31T23:06:45.504Z,6.90
2022-12-31T23:09:32.744Z,6.90
2022-12-31T23:12:00.135Z,6.90
2022-12-31T23:14:45.994Z,6.90
2022-12-31T23:17:37.585Z,6.80
2022-12-31T23:20:25.704Z,6.80
2022-12-31T23:23:10.722Z,6.80
2022-12-31T23:25:49.358Z,6.80
2022-12-31T23:28:24.915Z,6.80
2022-12-31T23:30:52.778Z,6.70
2022-12-31T23:33:25.471Z,6.70
2022-12-31T23:36:05.892Z,6.70
2022-12-31T23:38:32.925Z,6.80
2022-12-31T23:40:59.842Z,6.80
2022-12-31T23:43:27.213Z,6.80
2022-12-31T23:45:54.274Z,6.80
2022-12-31T23:48:21.395Z,6.80
2022-12-31T23:50:53.476Z,6.80
2022-12-31T23:53:21.608Z,6.70
2022-12-31T23:55:48.559Z,6.80
2022-12-31T23:58:18.827Z,6.80
